Time;durP1;ratioP1;P1;durP2;ratioP2;P2;SDS_P1;SDS_P2;PMS_P1;PMS_P2;Temp;Humidity;BMP_temperature;BMP_pressure;BME280_temperature;BME280_humidity;BME280_pressure;Samples;Min_cycle;Max_cycle;Signal;HPM_P1;HPM_P2
2022/03/18 00:02:07;;;;;;;9.05;5.82;;;;;;;;;;4985227;28;20022;-50
2022/03/18 00:04:32;;;;;;;9.17;5.83;;;;;;;;;;4981859;28;20482;-51
2022/03/18 00:06:57;;;;;;;10.73;6.33;;;;;;;;;;4978183;28;20572;-50
2022/03/18 00:09:22;;;;;;;9.70;5.80;;;;;;;;;;5004460;28;20308;-51
2022/03/18 00:11:48;;;;;;;8.87;5.40;;;;;;;;;;5004467;28;20364;-52
2022/03/18 00:14:14;;;;;;;10.00;5.50;;;;;;;;;;4987570;28;20327;-51
2022/03/18 00:16:39;;;;;;;9.60;5.97;;;;;;;;;;4984665;28;20101;-51
2022/03/18 00:19:04;;;;;;;9.43;5.90;;;;;;;;;;4983504;28;20034;-50
2022/03/18 00:21:30;;;;;;;9.10;5.73;;;;;;;;;;4975768;28;20072;-51
2022/03/18 00:23:55;;;;;;;8.77;5.53;;;;;;;;;;4984891;28;20281;-50
2022/03/18 00:26:20;;;;;;;9.93;5.78;;;;;;;;;;4969685;28;20034;-51
2022/03/18 00:28:45;;;;;;;8.97;5.83;;;;;;;;;;5003994;28;20030;-51
2022/03/18 00:31:12;;;;;;;9.10;5.80;;;;;;;;;;5004285;28;20292;-51
2022/03/18 00:33:37;;;;;;;9.95;6.07;;;;;;;;;;4992539;28;20058;-50
2022/03/18 00:36:02;;;;;;;12.10;6.47;;;;;;;;;;4984523;28;20053;-50
2022/03/18 00:38:27;;;;;;;9.48;5.95;;;;;;;;;;4984183;28;20118;-50
2022/03/18 00:40:55;;;;;;;8.83;5.73;;;;;;;;;;4984578;28;20029;-50
2022/03/18 00:43:21;;;;;;;9.77;5.80;;;;;;;;;;4984290;28;20498;-50
2022/03/18 00:45:46;;;;;;;9.73;6.40;;;;;;;;;;4971134;28;20023;-50
2022/03/18 00:53:39;;;;;;;9.57;5.80;;;;;;;;;;4991206;28;20108;-51
2022/03/18 00:56:04;;;;;;;8.93;5.73;;;;;;;;;;4984315;28;20057;-51
2022/03/18 00:58:29;;;;;;;9.67;5.63;;;;;;;;;;4983747;28;20027;-51
2022/03/18 01:00:55;;;;;;;8.27;5.55;;;;;;;;;;4982628;28;20266;-50
2022/03/18 01:03:20;;;;;;;9.02;5.45;;;;;;;;;;4983971;28;20042;-50
2022/03/18 01:05:45;;;;;;;10.63;6.18;;;;;;;;;;4971468;28;20054;-49
2022/03/18 01:08:10;;;;;;;8.50;5.20;;;;;;;;;;4996305;28;20061;-50
2022/03/18 01:10:36;;;;;;;9.67;6.13;;;;;;;;;;5003118;28;20275;-50
2022/03/18 01:13:02;;;;;;;9.27;5.60;;;;;;;;;;4996976;28;20257;-50
2022/03/18 01:15:28;;;;;;;9.77;5.73;;;;;;;;;;4983789;28;20034;-50
2022/03/18 01:17:53;;;;;;;9.05;5.25;;;;;;;;;;4983619;28;20277;-50
2022/03/18 01:20:18;;;;;;;9.77;5.87;;;;;;;;;;4983479;28;20030;-49
2022/03/18 01:22:43;;;;;;;8.50;5.15;;;;;;;;;;4983478;28;20022;-49
2022/03/18 01:25:09;;;;;;;9.67;6.10;;;;;;;;;;4975896;28;20053;-50
2022/03/18 01:27:34;;;;;;;8.57;5.40;;;;;;;;;;4985885;28;20374;-50
2022/03/18 01:29:59;;;;;;;9.87;6.00;;;;;;;;;;5001558;28;20026;-51
2022/03/18 01:32:24;;;;;;;9.40;5.70;;;;;;;;;;5001203;28;20088;-50
2022/03/18 01:34:49;;;;;;;9.27;5.80;;;;;;;;;;4983212;28;20470;-51
2022/03/18 01:37:15;;;;;;;9.50;5.60;;;;;;;;;;4983186;28;20273;-51
2022/03/18 01:39:40;;;;;;;9.25;5.20;;;;;;;;;;4983211;28;20053;-50
2022/03/18 01:42:06;;;;;;;9.43;5.70;;;;;;;;;;4983384;28;20033;-50
2022/03/18 01:44:37;;;;;;;8.95;5.75;;;;;;;;;;4980454;28;20301;-50
2022/03/18 01:47:02;;;;;;;8.35;5.15;;;;;;;;;;4968722;28;20177;-50
2022/03/18 01:49:28;;;;;;;8.32;5.50;;;;;;;;;;4983040;28;20176;-50
2022/03/18 01:51:53;;;;;;;8.53;5.00;;;;;;;;;;4982941;28;20073;-50
2022/03/18 01:57:03;;;;;;;8.02;5.88;;;;;;;;;;4980928;28;20473;-50
2022/03/18 01:59:28;;;;;;;9.18;5.28;;;;;;;;;;4982949;28;20039;-49
2022/03/18 02:01:54;;;;;;;7.37;4.80;;;;;;;;;;4982867;28;20085;-49
2022/03/18 02:04:19;;;;;;;7.97;4.70;;;;;;;;;;4982140;28;20030;-50
2022/03/18 02:06:44;;;;;;;8.68;5.57;;;;;;;;;;4967300;28;20388;-50
2022/03/18 02:09:09;;;;;;;9.00;5.40;;;;;;;;;;4982514;28;20456;-50
2022/03/18 02:11:35;;;;;;;9.48;5.20;;;;;;;;;;4982801;28;20309;-51
2022/03/18 02:14:00;;;;;;;8.30;5.10;;;;;;;;;;4982689;28;20030;-49
2022/03/18 02:16:25;;;;;;;8.50;4.95;;;;;;;;;;4982463;28;20278;-49
2022/03/18 02:18:50;;;;;;;8.27;5.30;;;;;;;;;;4981632;28;20026;-49
2022/03/18 02:21:15;;;;;;;7.53;5.10;;;;;;;;;;4982178;28;20014;-49
2022/03/18 02:23:41;;;;;;;7.87;4.53;;;;;;;;;;4981532;28;20038;-50
2022/03/18 02:26:06;;;;;;;9.57;5.38;;;;;;;;;;4966298;28;20266;-50
2022/03/18 02:28:31;;;;;;;8.27;4.90;;;;;;;;;;4997646;28;20529;-50
2022/03/18 02:30:57;;;;;;;9.00;4.63;;;;;;;;;;4982744;28;20486;-50
2022/03/18 02:33:22;;;;;;;8.63;5.07;;;;;;;;;;4982374;28;20816;-50
2022/03/18 02:35:51;;;;;;;8.15;5.03;;;;;;;;;;4982548;28;20023;-51
2022/03/18 02:38:16;;;;;;;7.00;4.55;;;;;;;;;;4982261;28;20552;-49
2022/03/18 02:40:41;;;;;;;7.63;4.83;;;;;;;;;;4982410;28;20030;-50
2022/03/18 02:43:06;;;;;;;7.10;4.70;;;;;;;;;;4982511;28;20306;-51
2022/03/18 02:45:32;;;;;;;7.53;4.77;;;;;;;;;;4971938;28;20647;-50
2022/03/18 02:47:57;;;;;;;7.17;4.50;;;;;;;;;;4990325;28;20448;-50
2022/03/18 02:50:22;;;;;;;7.53;4.40;;;;;;;;;;5001623;28;20296;-50
2022/03/18 02:52:48;;;;;;;7.00;4.35;;;;;;;;;;4997289;28;20270;-50
2022/03/18 02:55:13;;;;;;;7.60;4.47;;;;;;;;;;4982361;28;20047;-49
2022/03/18 02:57:38;;;;;;;8.57;5.00;;;;;;;;;;4982215;28;20061;-49
2022/03/18 03:00:05;;;;;;;7.45;4.65;;;;;;;;;;4982471;28;20030;-49
2022/03/18 03:02:31;;;;;;;7.22;4.63;;;;;;;;;;4982051;28;20038;-50
2022/03/18 03:07:59;;;;;;;8.10;4.70;;;;;;;;;;4975183;28;20040;-50
2022/03/18 03:10:24;;;;;;;6.63;4.32;;;;;;;;;;4985444;28;20481;-49
2022/03/18 03:12:50;;;;;;;7.35;4.50;;;;;;;;;;4985522;28;20030;-49
2022/03/18 03:15:15;;;;;;;7.63;4.32;;;;;;;;;;4985573;28;20030;-51
2022/03/18 03:17:40;;;;;;;7.20;4.60;;;;;;;;;;4985714;28;20481;-49
2022/03/18 03:20:08;;;;;;;7.27;4.70;;;;;;;;;;4985578;28;20749;-49
2022/03/18 03:22:33;;;;;;;6.80;4.55;;;;;;;;;;4985363;28;20594;-50
2022/03/18 03:24:59;;;;;;;7.15;4.60;;;;;;;;;;4980021;28;20057;-51
2022/03/18 03:27:29;;;;;;;7.57;4.50;;;;;;;;;;4974737;28;20478;-49
2022/03/18 03:29:57;;;;;;;7.22;4.25;;;;;;;;;;4985249;28;20096;-50
2022/03/18 03:32:22;;;;;;;7.90;4.38;;;;;;;;;;4985086;28;20027;-50
2022/03/18 03:34:47;;;;;;;7.40;4.33;;;;;;;;;;4985298;28;20141;-52
2022/03/18 03:37:14;;;;;;;7.17;4.23;;;;;;;;;;4985416;28;20325;-50
2022/03/18 03:39:39;;;;;;;7.53;4.47;;;;;;;;;;4985037;28;20034;-49
2022/03/18 03:42:04;;;;;;;6.40;4.05;;;;;;;;;;4984060;28;20037;-49
2022/03/18 03:44:29;;;;;;;6.72;4.13;;;;;;;;;;4983570;28;20074;-50
2022/03/18 03:46:55;;;;;;;6.97;4.57;;;;;;;;;;4975648;28;20018;-50
2022/03/18 03:49:20;;;;;;;7.50;4.50;;;;;;;;;;5003429;28;20029;-50
2022/03/18 03:51:45;;;;;;;6.25;4.03;;;;;;;;;;5004608;28;20304;-50
2022/03/18 03:54:10;;;;;;;6.80;4.37;;;;;;;;;;4989100;28;20125;-50
2022/03/18 03:56:36;;;;;;;6.45;4.45;;;;;;;;;;4984602;28;20138;-50
2022/03/18 03:59:01;;;;;;;6.50;4.03;;;;;;;;;;4984744;28;20030;-49
2022/03/18 04:01:26;;;;;;;7.40;4.27;;;;;;;;;;4984825;28;20023;-49
2022/03/18 04:03:52;;;;;;;6.80;4.30;;;;;;;;;;4984945;28;20277;-49
2022/03/18 04:06:17;;;;;;;6.45;3.92;;;;;;;;;;4983785;28;20037;-50
2022/03/18 04:08:42;;;;;;;8.23;4.45;;;;;;;;;;4984991;28;20088;-52
2022/03/18 04:11:07;;;;;;;6.65;3.88;;;;;;;;;;4984895;28;20022;-50
2022/03/18 04:13:33;;;;;;;7.32;4.53;;;;;;;;;;4982501;28;20082;-50
2022/03/18 04:15:58;;;;;;;6.23;3.67;;;;;;;;;;4984905;28;20393;-51
2022/03/18 04:18:23;;;;;;;6.87;4.00;;;;;;;;;;4981698;28;20278;-50
2022/03/18 04:20:48;;;;;;;6.90;4.22;;;;;;;;;;4982632;28;20265;-50
2022/03/18 04:23:14;;;;;;;6.73;4.40;;;;;;;;;;4982400;28;20014;-51
2022/03/18 04:25:40;;;;;;;6.13;4.10;;;;;;;;;;4967487;28;20668;-50
2022/03/18 04:28:05;;;;;;;6.53;3.83;;;;;;;;;;4978001;28;20297;-51
2022/03/18 04:30:30;;;;;;;6.30;3.77;;;;;;;;;;4983348;28;20034;-52
2022/03/18 04:32:56;;;;;;;5.78;3.55;;;;;;;;;;4984203;28;20281;-51
2022/03/18 04:35:21;;;;;;;6.23;3.63;;;;;;;;;;4983858;28;20022;-51
2022/03/18 04:37:47;;;;;;;5.55;3.85;;;;;;;;;;4983623;28;20823;-50
2022/03/18 04:40:12;;;;;;;5.07;3.57;;;;;;;;;;4983172;28;20084;-50
2022/03/18 04:42:38;;;;;;;4.50;3.05;;;;;;;;;;4983247;28;20295;-51
2022/03/18 04:45:03;;;;;;;5.32;3.35;;;;;;;;;;4983349;28;20109;-51
2022/03/18 04:47:30;;;;;;;5.70;3.30;;;;;;;;;;4983596;28;20038;-50
2022/03/18 04:49:57;;;;;;;5.15;3.65;;;;;;;;;;4985416;28;20094;-51
2022/03/18 04:52:22;;;;;;;5.03;3.58;;;;;;;;;;4992041;28;20022;-52
2022/03/18 04:54:47;;;;;;;5.00;3.33;;;;;;;;;;4994221;28;20050;-50
2022/03/18 04:57:15;;;;;;;4.83;3.43;;;;;;;;;;4994649;28;20349;-51
2022/03/18 04:59:40;;;;;;;4.60;3.30;;;;;;;;;;4988095;28;20703;-51
2022/03/18 05:02:06;;;;;;;5.10;3.30;;;;;;;;;;4986510;28;20026;-50
2022/03/18 05:04:31;;;;;;;5.22;3.30;;;;;;;;;;4984847;28;20038;-51
2022/03/18 05:06:56;;;;;;;5.67;3.50;;;;;;;;;;4985993;28;20389;-50
2022/03/18 05:09:23;;;;;;;5.30;3.10;;;;;;;;;;4984545;28;20387;-49
2022/03/18 05:11:48;;;;;;;3.97;2.97;;;;;;;;;;4982687;28;20335;-50
2022/03/18 05:14:14;;;;;;;4.73;3.10;;;;;;;;;;4982918;28;20774;-49
2022/03/18 05:16:41;;;;;;;5.07;3.25;;;;;;;;;;4982716;28;20181;-50
2022/03/18 05:19:09;;;;;;;4.25;3.10;;;;;;;;;;4982570;28;20029;-51
2022/03/18 05:21:35;;;;;;;5.55;3.55;;;;;;;;;;4979025;28;20030;-50
2022/03/18 05:24:01;;;;;;;4.78;3.40;;;;;;;;;;4981683;28;20058;-50
2022/03/18 05:26:26;;;;;;;4.43;2.97;;;;;;;;;;4981244;28;20112;-49
2022/03/18 05:28:52;;;;;;;6.47;3.10;;;;;;;;;;4982012;28;20301;-50
2022/03/18 05:31:17;;;;;;;5.53;3.30;;;;;;;;;;4981722;28;20030;-50
2022/03/18 05:33:42;;;;;;;5.00;3.20;;;;;;;;;;4981920;28;20045;-53
2022/03/18 05:36:07;;;;;;;4.97;3.10;;;;;;;;;;4980071;28;20788;-51
2022/03/18 05:38:32;;;;;;;5.13;3.03;;;;;;;;;;4970291;28;20022;-52
2022/03/18 05:40:58;;;;;;;4.80;3.37;;;;;;;;;;4972170;28;20022;-51
2022/03/18 05:43:23;;;;;;;4.60;2.90;;;;;;;;;;5001971;28;20281;-50
2022/03/18 05:45:48;;;;;;;6.05;3.25;;;;;;;;;;4964841;28;20282;-51
2022/03/18 05:48:13;;;;;;;4.20;2.90;;;;;;;;;;4965357;28;20571;-51
2022/03/18 05:50:39;;;;;;;4.63;2.83;;;;;;;;;;4972381;28;20692;-50
2022/03/18 05:53:04;;;;;;;5.22;3.38;;;;;;;;;;4981362;28;20296;-50
2022/03/18 05:56:52;;;;;;;4.82;3.30;;;;;;;;;;4974978;28;20458;-51
2022/03/18 05:58:15;;;;;;;4.72;2.88;;;;;;;;;;4976179;28;20109;-50
2022/03/18 06:00:42;;;;;;;5.18;3.08;;;;;;;;;;4968243;28;20486;-50
2022/03/18 06:03:07;;;;;;;4.53;3.00;;;;;;;;;;4982086;28;20034;-50
2022/03/18 06:05:32;;;;;;;4.40;3.10;;;;;;;;;;4973278;28;20093;-50
2022/03/18 06:11:48;;;;;;;3.50;2.67;;;;;;;;;;4976385;28;20294;-50
2022/03/18 06:13:27;;;;;;;4.35;2.78;;;;;;;;;;4981933;28;20037;-50
2022/03/18 06:15:52;;;;;;;4.60;2.70;;;;;;;;;;4981859;28;20025;-51
2022/03/18 06:18:17;;;;;;;4.30;3.17;;;;;;;;;;4981094;28;20026;-51
2022/03/18 06:20:42;;;;;;;5.03;3.10;;;;;;;;;;4982188;28;20037;-51
2022/03/18 06:23:07;;;;;;;4.90;2.73;;;;;;;;;;4982332;28;20022;-50
2022/03/18 06:25:33;;;;;;;4.53;2.77;;;;;;;;;;4980416;28;20273;-51
2022/03/18 06:27:58;;;;;;;4.37;2.83;;;;;;;;;;4982009;28;20034;-52
2022/03/18 06:30:23;;;;;;;3.50;2.70;;;;;;;;;;4982249;28;20359;-52
2022/03/18 06:32:48;;;;;;;4.63;2.60;;;;;;;;;;4982268;28;20773;-50
2022/03/18 06:35:14;;;;;;;4.28;2.72;;;;;;;;;;4982479;28;20696;-51
2022/03/18 06:37:39;;;;;;;4.63;2.90;;;;;;;;;;4982173;28;20037;-50
2022/03/18 06:40:05;;;;;;;4.20;2.53;;;;;;;;;;4979434;28;20026;-50
2022/03/18 06:42:30;;;;;;;4.25;2.60;;;;;;;;;;4966902;28;20353;-52
2022/03/18 06:44:55;;;;;;;3.60;2.60;;;;;;;;;;4972640;28;20478;-52
2022/03/18 06:47:21;;;;;;;4.37;2.67;;;;;;;;;;4967835;28;20655;-51
2022/03/18 06:49:46;;;;;;;4.60;2.85;;;;;;;;;;4967844;28;20372;-51
2022/03/18 06:52:11;;;;;;;3.53;2.33;;;;;;;;;;4967694;28;20019;-51
2022/03/18 06:54:36;;;;;;;3.73;2.57;;;;;;;;;;4968316;28;20054;-52
2022/03/18 06:57:02;;;;;;;3.60;2.70;;;;;;;;;;4966751;28;20163;-51
2022/03/18 06:59:27;;;;;;;3.58;2.45;;;;;;;;;;4967255;28;20023;-50
2022/03/18 07:01:54;;;;;;;4.60;2.88;;;;;;;;;;4970695;28;20026;-50
2022/03/18 07:04:19;;;;;;;3.47;2.47;;;;;;;;;;4984846;28;20112;-51
2022/03/18 07:06:46;;;;;;;3.30;2.30;;;;;;;;;;4984980;28;20023;-51
2022/03/18 07:09:11;;;;;;;3.80;2.60;;;;;;;;;;4985920;28;20079;-51
2022/03/18 07:11:36;;;;;;;4.37;2.87;;;;;;;;;;4985870;28;20422;-51
2022/03/18 07:14:02;;;;;;;3.90;2.63;;;;;;;;;;4985549;28;20316;-50
2022/03/18 07:19:11;;;;;;;3.78;2.33;;;;;;;;;;4985647;28;20344;-51
2022/03/18 07:21:36;;;;;;;4.30;3.00;;;;;;;;;;4985705;28;20022;-50
2022/03/18 07:24:01;;;;;;;3.07;2.43;;;;;;;;;;4984723;28;20273;-50
2022/03/18 07:26:26;;;;;;;4.35;2.75;;;;;;;;;;4984178;28;20030;-51
2022/03/18 07:28:52;;;;;;;3.10;2.43;;;;;;;;;;4983895;28;20093;-52
2022/03/18 07:31:17;;;;;;;4.97;2.60;;;;;;;;;;4983580;28;20026;-52
2022/03/18 07:33:42;;;;;;;3.10;2.13;;;;;;;;;;4983450;28;20030;-50
2022/03/18 07:36:07;;;;;;;4.03;2.57;;;;;;;;;;4968745;28;20267;-51
2022/03/18 07:38:32;;;;;;;3.70;2.50;;;;;;;;;;4967385;28;20281;-50
2022/03/18 07:40:58;;;;;;;5.13;2.93;;;;;;;;;;4967606;28;20042;-51
2022/03/18 07:43:23;;;;;;;3.80;2.27;;;;;;;;;;4967268;28;20035;-51
2022/03/18 07:45:48;;;;;;;3.60;2.20;;;;;;;;;;4966729;28;20122;-50
2022/03/18 07:48:13;;;;;;;5.00;2.70;;;;;;;;;;4973055;28;20121;-51
2022/03/18 07:50:39;;;;;;;3.20;2.30;;;;;;;;;;4973592;28;20105;-50
2022/03/18 07:53:05;;;;;;;3.97;2.50;;;;;;;;;;4973375;28;20057;-50
2022/03/18 07:55:31;;;;;;;3.92;2.70;;;;;;;;;;4974347;28;20268;-51
2022/03/18 07:57:56;;;;;;;3.92;2.33;;;;;;;;;;4973557;28;22082;-50
2022/03/18 08:00:21;;;;;;;3.30;2.38;;;;;;;;;;4973930;28;20030;-52
2022/03/18 08:02:47;;;;;;;3.75;2.50;;;;;;;;;;4967155;28;20038;-51
2022/03/18 08:05:13;;;;;;;3.55;2.55;;;;;;;;;;4964932;28;20089;-50
2022/03/18 08:07:39;;;;;;;4.00;2.38;;;;;;;;;;4964495;28;20066;-50
2022/03/18 08:10:04;;;;;;;3.42;2.20;;;;;;;;;;4964377;28;20480;-52
2022/03/18 08:12:30;;;;;;;3.58;2.70;;;;;;;;;;4966072;28;20019;-50
2022/03/18 08:14:55;;;;;;;3.83;2.50;;;;;;;;;;4989279;28;20501;-50
2022/03/18 08:17:21;;;;;;;4.57;2.53;;;;;;;;;;5003127;28;20493;-50
2022/03/18 08:19:46;;;;;;;3.17;2.33;;;;;;;;;;4981044;28;20069;-50
2022/03/18 08:22:11;;;;;;;4.30;2.70;;;;;;;;;;4976277;28;20030;-50
2022/03/18 08:24:37;;;;;;;4.03;2.53;;;;;;;;;;4966822;28;20037;-49
2022/03/18 08:27:02;;;;;;;2.90;2.20;;;;;;;;;;4965938;28;20467;-51
2022/03/18 08:29:27;;;;;;;4.18;2.33;;;;;;;;;;4969772;28;20042;-50
2022/03/18 08:31:52;;;;;;;3.63;2.53;;;;;;;;;;4964218;28;20486;-50
2022/03/18 08:34:18;;;;;;;3.92;2.70;;;;;;;;;;4964176;28;20339;-51
2022/03/18 08:36:43;;;;;;;3.37;2.57;;;;;;;;;;4968115;28;20631;-51
2022/03/18 08:39:08;;;;;;;4.17;2.37;;;;;;;;;;4964762;28;21079;-50
2022/03/18 08:41:33;;;;;;;3.30;2.30;;;;;;;;;;4964689;28;20276;-51
2022/03/18 08:43:58;;;;;;;4.00;2.50;;;;;;;;;;4963619;28;20023;-51
2022/03/18 08:46:24;;;;;;;4.10;2.53;;;;;;;;;;4965255;28;20373;-50
2022/03/18 08:48:49;;;;;;;4.23;2.67;;;;;;;;;;4968419;28;20096;-50
2022/03/18 08:51:15;;;;;;;3.88;2.53;;;;;;;;;;4983264;28;20451;-53
2022/03/18 08:53:40;;;;;;;4.28;2.63;;;;;;;;;;4963675;28;20105;-51
2022/03/18 08:56:05;;;;;;;4.18;2.60;;;;;;;;;;4977844;28;20113;-51
2022/03/18 08:58:31;;;;;;;4.37;2.77;;;;;;;;;;4975764;28;20034;-49
2022/03/18 09:00:56;;;;;;;4.00;2.50;;;;;;;;;;4972791;28;20317;-50
2022/03/18 09:03:21;;;;;;;5.03;2.80;;;;;;;;;;4977961;28;20026;-50
2022/03/18 09:05:46;;;;;;;4.57;2.90;;;;;;;;;;4970342;28;20786;-50
2022/03/18 09:08:13;;;;;;;5.03;2.83;;;;;;;;;;4967603;28;20554;-50
2022/03/18 09:10:38;;;;;;;4.55;2.90;;;;;;;;;;4964200;28;20019;-51
2022/03/18 09:13:03;;;;;;;5.37;2.80;;;;;;;;;;4967299;28;20701;-50
2022/03/18 09:15:29;;;;;;;4.55;2.88;;;;;;;;;;4966943;28;20265;-50
2022/03/18 09:17:55;;;;;;;6.05;3.30;;;;;;;;;;4964865;28;20434;-50
2022/03/18 09:20:20;;;;;;;6.63;3.30;;;;;;;;;;4964747;28;20026;-50
2022/03/18 09:22:45;;;;;;;4.80;3.25;;;;;;;;;;4966963;28;20026;-51
2022/03/18 09:25:10;;;;;;;5.80;3.45;;;;;;;;;;4964703;28;20793;-51
2022/03/18 09:27:36;;;;;;;5.70;3.17;;;;;;;;;;4965312;28;20027;-51
2022/03/18 09:30:01;;;;;;;7.30;3.50;;;;;;;;;;4965600;28;20292;-51
2022/03/18 09:32:27;;;;;;;7.15;3.50;;;;;;;;;;4968783;28;20657;-51
2022/03/18 09:34:53;;;;;;;6.20;3.50;;;;;;;;;;4966666;28;20026;-51
2022/03/18 09:37:18;;;;;;;6.75;3.30;;;;;;;;;;4978054;28;20027;-50
2022/03/18 09:39:43;;;;;;;6.30;3.40;;;;;;;;;;4974017;28;20486;-51
2022/03/18 09:42:09;;;;;;;6.53;3.50;;;;;;;;;;4972732;28;20138;-52
2022/03/18 09:44:34;;;;;;;5.45;3.42;;;;;;;;;;4981132;28;20309;-51
2022/03/18 09:46:59;;;;;;;5.85;3.50;;;;;;;;;;4971351;28;20026;-51
2022/03/18 09:49:25;;;;;;;5.93;3.05;;;;;;;;;;4982780;28;20034;-51
2022/03/18 09:51:50;;;;;;;6.20;3.23;;;;;;;;;;4982977;28;20622;-52
2022/03/18 09:54:15;;;;;;;6.80;3.63;;;;;;;;;;4983146;28;20285;-53
2022/03/18 09:56:44;;;;;;;7.97;3.67;;;;;;;;;;4982684;28;20022;-53
2022/03/18 09:59:10;;;;;;;7.53;4.15;;;;;;;;;;4982982;28;20289;-52
2022/03/18 10:01:35;;;;;;;8.75;4.68;;;;;;;;;;4983227;28;20100;-51
2022/03/18 10:04:04;;;;;;;9.43;4.45;;;;;;;;;;4983050;28;20034;-50
2022/03/18 10:06:29;;;;;;;9.65;4.40;;;;;;;;;;4965556;28;20482;-49
2022/03/18 10:08:55;;;;;;;8.40;4.57;;;;;;;;;;5002546;28;20033;-50
2022/03/18 10:11:20;;;;;;;9.10;5.13;;;;;;;;;;5000043;28;20038;-52
2022/03/18 10:14:01;;;;;;;9.40;5.22;;;;;;;;;;4983465;28;20030;-52
2022/03/18 10:16:36;;;;;;;10.45;5.88;;;;;;;;;;4974162;28;20057;-51
2022/03/18 10:19:02;;;;;;;11.80;6.15;;;;;;;;;;4980500;28;20110;-51
2022/03/18 10:21:28;;;;;;;10.38;5.90;;;;;;;;;;4971883;28;20050;-51
2022/03/18 10:24:09;;;;;;;9.63;6.50;;;;;;;;;;4971376;28;20014;-51
2022/03/18 10:26:37;;;;;;;13.15;6.85;;;;;;;;;;4982693;28;20018;-51
2022/03/18 10:29:04;;;;;;;11.00;6.60;;;;;;;;;;4971700;28;20041;-51
2022/03/18 10:31:29;;;;;;;9.73;6.47;;;;;;;;;;4969371;28;20029;-51
2022/03/18 10:39:30;;;;;;;12.82;7.03;;;;;;;;;;4986841;28;20100;-52
2022/03/18 10:41:56;;;;;;;12.70;6.95;;;;;;;;;;4986993;28;20618;-52
2022/03/18 10:44:21;;;;;;;10.45;6.30;;;;;;;;;;4985829;28;20029;-51
2022/03/18 10:46:50;;;;;;;11.50;6.87;;;;;;;;;;4984425;28;20394;-51
2022/03/18 10:49:16;;;;;;;11.82;7.10;;;;;;;;;;4990473;28;20349;-52
2022/03/18 10:51:41;;;;;;;12.23;7.00;;;;;;;;;;4984609;28;20365;-51
2022/03/18 10:54:07;;;;;;;12.77;6.80;;;;;;;;;;4992549;28;20611;-52
2022/03/18 10:56:51;;;;;;;12.73;7.87;;;;;;;;;;4990083;28;20050;-51
2022/03/18 10:59:17;;;;;;;11.52;7.10;;;;;;;;;;4988037;28;20112;-52
2022/03/18 11:01:44;;;;;;;11.13;6.72;;;;;;;;;;4986611;28;20018;-51
2022/03/18 11:04:09;;;;;;;11.73;7.25;;;;;;;;;;4982645;28;20141;-54
2022/03/18 11:06:34;;;;;;;10.70;6.87;;;;;;;;;;4984165;28;20110;-51
2022/03/18 11:08:59;;;;;;;12.63;8.13;;;;;;;;;;4982968;28;20121;-51
2022/03/18 11:11:27;;;;;;;12.97;8.43;;;;;;;;;;4984401;28;20106;-52
2022/03/18 11:14:06;;;;;;;12.68;7.70;;;;;;;;;;4984062;28;20026;-52
2022/03/18 11:16:38;;;;;;;12.13;8.43;;;;;;;;;;4984135;28;20029;-51
2022/03/18 11:19:08;;;;;;;13.00;8.00;;;;;;;;;;4983995;28;20129;-52
2022/03/18 11:21:41;;;;;;;10.35;7.13;;;;;;;;;;4984487;28;20469;-51
2022/03/18 11:24:11;;;;;;;14.27;7.93;;;;;;;;;;4985401;28;20015;-51
2022/03/18 11:26:36;;;;;;;13.13;8.93;;;;;;;;;;4973556;28;20094;-52
2022/03/18 11:29:09;;;;;;;11.13;7.57;;;;;;;;;;4966676;28;20038;-52
2022/03/18 11:31:34;;;;;;;11.93;7.80;;;;;;;;;;4985016;28;20121;-51
2022/03/18 11:34:09;;;;;;;12.27;8.25;;;;;;;;;;4985097;28;20292;-52
2022/03/18 11:36:34;;;;;;;13.10;8.27;;;;;;;;;;4985176;28;20018;-51
2022/03/18 11:39:02;;;;;;;12.82;7.68;;;;;;;;;;4983365;28;20059;-51
2022/03/18 11:41:48;;;;;;;14.85;8.60;;;;;;;;;;4977980;28;20101;-53
2022/03/18 11:44:32;;;;;;;11.63;7.13;;;;;;;;;;4966842;28;20027;-52
2022/03/18 11:47:14;;;;;;;13.25;8.45;;;;;;;;;;4965540;28;20030;-51
2022/03/18 11:49:40;;;;;;;12.13;8.05;;;;;;;;;;4964543;28;20047;-51
2022/03/18 11:52:05;;;;;;;12.00;6.97;;;;;;;;;;4965589;28;20031;-51
2022/03/18 11:54:36;;;;;;;11.33;7.23;;;;;;;;;;4965657;28;20046;-51
2022/03/18 11:57:05;;;;;;;12.80;7.78;;;;;;;;;;4964010;28;20285;-51
2022/03/18 11:59:43;;;;;;;12.10;8.20;;;;;;;;;;4965556;28;20089;-51
2022/03/18 12:02:09;;;;;;;10.80;6.88;;;;;;;;;;4966518;28;20077;-48
2022/03/18 12:04:36;;;;;;;10.50;7.00;;;;;;;;;;4965624;28;20026;-52
2022/03/18 12:07:18;;;;;;;10.23;7.13;;;;;;;;;;4966266;28;20490;-51
2022/03/18 12:10:02;;;;;;;11.85;7.57;;;;;;;;;;4968164;28;20043;-52
2022/03/18 12:12:57;;;;;;;11.90;8.07;;;;;;;;;;4965392;28;20023;-51
2022/03/18 12:15:22;;;;;;;11.25;6.93;;;;;;;;;;4961786;28;20061;-50
2022/03/18 12:17:48;;;;;;;11.70;7.20;;;;;;;;;;4965971;28;20644;-51
2022/03/18 12:20:20;;;;;;;10.90;7.53;;;;;;;;;;4970158;28;20352;-51
2022/03/18 12:22:46;;;;;;;10.85;6.63;;;;;;;;;;4970358;28;20133;-51
2022/03/18 12:25:11;;;;;;;12.85;8.25;;;;;;;;;;4967510;28;20403;-51
2022/03/18 12:27:38;;;;;;;10.43;7.18;;;;;;;;;;4967303;28;20406;-51
2022/03/18 12:30:05;;;;;;;12.85;7.68;;;;;;;;;;4964888;28;20035;-51
2022/03/18 12:32:30;;;;;;;12.70;7.47;;;;;;;;;;5000434;28;20030;-49
2022/03/18 12:34:56;;;;;;;11.60;7.30;;;;;;;;;;4984598;28;20266;-51
2022/03/18 12:37:24;;;;;;;10.20;6.93;;;;;;;;;;4984603;28;20186;-48
2022/03/18 12:40:08;;;;;;;10.88;6.63;;;;;;;;;;4983567;28;20026;-51
2022/03/18 12:42:46;;;;;;;14.50;7.03;;;;;;;;;;4999303;28;20076;-50
2022/03/18 12:45:12;;;;;;;11.55;7.28;;;;;;;;;;4978696;28;20085;-50
2022/03/18 12:47:37;;;;;;;10.85;7.57;;;;;;;;;;4973052;28;20548;-50
2022/03/18 12:50:02;;;;;;;10.60;7.00;;;;;;;;;;4982866;28;20022;-51
2022/03/18 12:52:28;;;;;;;11.40;7.10;;;;;;;;;;4984048;28;20059;-50
2022/03/18 12:55:03;;;;;;;11.05;7.32;;;;;;;;;;4983789;28;20045;-50
2022/03/18 12:57:31;;;;;;;9.45;6.45;;;;;;;;;;4982455;28;20125;-51
2022/03/18 12:59:57;;;;;;;9.85;6.95;;;;;;;;;;4983756;28;20526;-50
2022/03/18 13:02:23;;;;;;;10.30;7.00;;;;;;;;;;4982840;28;20076;-51
2022/03/18 13:04:55;;;;;;;10.00;6.95;;;;;;;;;;4981806;28;20061;-51
2022/03/18 13:07:20;;;;;;;10.20;6.80;;;;;;;;;;4977315;28;20018;-51
2022/03/18 13:09:48;;;;;;;11.63;7.27;;;;;;;;;;4985387;28;20041;-50
2022/03/18 13:12:35;;;;;;;10.55;7.25;;;;;;;;;;5003447;28;20773;-51
2022/03/18 13:15:11;;;;;;;11.30;6.85;;;;;;;;;;4967897;28;20105;-52
2022/03/18 13:17:36;;;;;;;10.15;6.30;;;;;;;;;;4965862;28;20023;-50
2022/03/18 13:20:02;;;;;;;10.32;6.82;;;;;;;;;;4980653;28;20056;-51
2022/03/18 13:22:30;;;;;;;10.98;7.22;;;;;;;;;;4983887;28;20501;-50
2022/03/18 13:24:58;;;;;;;9.80;6.45;;;;;;;;;;4976494;28;20034;-50
2022/03/18 13:27:23;;;;;;;9.90;6.40;;;;;;;;;;4976152;28;20560;-51
2022/03/18 13:32:50;;;;;;;6.70;4.72;;;;;;;;;;4981597;28;20360;-51
2022/03/18 13:35:16;;;;;;;9.85;6.18;;;;;;;;;;4969827;28;20036;-51
2022/03/18 13:37:41;;;;;;;11.90;7.22;;;;;;;;;;4983095;28;20037;-51
2022/03/18 13:40:13;;;;;;;11.23;6.83;;;;;;;;;;4983555;28;20029;-52
2022/03/18 13:42:38;;;;;;;11.75;7.82;;;;;;;;;;4983193;28;20312;-52
2022/03/18 13:45:04;;;;;;;11.52;7.07;;;;;;;;;;4983392;28;20049;-51
2022/03/18 13:47:43;;;;;;;11.68;7.15;;;;;;;;;;4982963;28;20058;-51
2022/03/18 13:50:08;;;;;;;12.20;7.50;;;;;;;;;;4983625;28;20057;-52
2022/03/18 13:52:34;;;;;;;11.43;7.72;;;;;;;;;;4983286;28;20530;-51
2022/03/18 13:55:00;;;;;;;12.63;7.57;;;;;;;;;;4967022;28;20042;-51
2022/03/18 13:57:25;;;;;;;11.13;6.60;;;;;;;;;;4983201;28;20030;-51
2022/03/18 13:59:51;;;;;;;12.05;7.22;;;;;;;;;;4981983;28;20449;-51
2022/03/18 14:02:28;;;;;;;11.98;7.50;;;;;;;;;;4982439;28;20031;-50
2022/03/18 14:04:54;;;;;;;10.88;6.97;;;;;;;;;;4981963;28;20396;-51
2022/03/18 14:07:19;;;;;;;10.30;6.63;;;;;;;;;;4982500;28;20030;-51
2022/03/18 14:09:57;;;;;;;11.40;7.25;;;;;;;;;;4981251;28;20402;-51
2022/03/18 14:12:23;;;;;;;12.73;7.63;;;;;;;;;;4983535;28;20030;-52
2022/03/18 14:14:50;;;;;;;11.03;6.60;;;;;;;;;;4983471;28;20029;-52
2022/03/18 14:17:16;;;;;;;10.68;6.32;;;;;;;;;;4983398;28;20281;-51
2022/03/18 14:19:53;;;;;;;9.75;6.70;;;;;;;;;;4976025;28;20026;-51
2022/03/18 14:22:37;;;;;;;10.52;6.45;;;;;;;;;;4980967;28;20034;-52
2022/03/18 14:25:13;;;;;;;9.50;6.13;;;;;;;;;;4974534;28;20041;-51
2022/03/18 14:27:38;;;;;;;10.50;6.88;;;;;;;;;;4972924;28;20405;-51
2022/03/18 14:30:07;;;;;;;9.03;6.00;;;;;;;;;;4968964;28;20030;-51
2022/03/18 14:32:32;;;;;;;10.03;6.40;;;;;;;;;;4963016;28;20336;-51
2022/03/18 14:34:57;;;;;;;10.50;6.47;;;;;;;;;;4981730;28;20026;-51
2022/03/18 14:37:25;;;;;;;9.33;6.73;;;;;;;;;;4982469;28;20057;-51
2022/03/18 14:39:51;;;;;;;9.13;5.75;;;;;;;;;;4982424;28;20034;-51
2022/03/18 14:42:16;;;;;;;9.17;6.03;;;;;;;;;;4982451;28;20027;-51
2022/03/18 14:44:41;;;;;;;10.40;6.00;;;;;;;;;;4981098;28;20356;-51
2022/03/18 14:47:06;;;;;;;10.13;6.28;;;;;;;;;;4967010;28;20429;-51
2022/03/18 14:49:32;;;;;;;7.82;5.00;;;;;;;;;;4982618;28;20042;-51
2022/03/18 14:51:57;;;;;;;9.87;5.93;;;;;;;;;;4982515;28;20918;-50
2022/03/18 14:56:17;;;;;;;8.63;5.63;;;;;;;;;;4982229;28;20297;-51
2022/03/18 14:57:07;;;;;;;9.45;5.95;;;;;;;;;;4967247;28;20043;-51
2022/03/18 14:59:32;;;;;;;8.67;5.93;;;;;;;;;;4982517;28;20147;-51
2022/03/18 15:01:58;;;;;;;9.53;5.33;;;;;;;;;;4982189;28;20023;-51
2022/03/18 15:04:23;;;;;;;8.63;5.30;;;;;;;;;;4984536;28;20287;-50